Casper, WY (82601)

4:35 PM MDT on July 29, 2016 (GMT -0600)
Grant Avenue | | Change Station

Elev 5164 ft 42.84 °N, 106.32 °W | Updated 4 minutes ago

Mostly Cloudy
Mostly Cloudy
84.0 °F
Feels Like 83 °F
N
1.2
Wind Variable Wind from East
Gusts 2.5 mph

Today
High -- | Low -- °F
--% Chance of Precip.
Yesterday
High -- | Low -- °F
Precip. -- in
Pressure 29.87 in
Visibility 10.0 miles
Clouds Mostly Cloudy 10000 ft
Mostly Cloudy 11000 ft
Heat Index 83 °F
Dew Point 56 °F
Humidity 37%
Rainfall 0.00 in
Snow Depth Not available.
5:54 AM 8:28 PM
Waning Crescent, 18% visible
METAR KCPR 292153Z 06018G24KT 10SM BKN100 BKN110 28/07 A3006 RMK AO2 LTG DSNT E AND SW TSB35E50 SLP114 T02780072
Pressure 29.87 in
Visibility 10.0 miles
Clouds Mostly Cloudy 10000 ft
Mostly Cloudy 11000 ft
Heat Index 83 °F
Dew Point 56 °F
Humidity 37%
Rainfall 0.00 in
Snow Depth Not available.
5:54 AM 8:28 PM
Waning Crescent, 18% visible
METAR KCPR 292153Z 06018G24KT 10SM BKN100 BKN110 28/07 A3006 RMK AO2 LTG DSNT E AND SW TSB35E50 SLP114 T02780072

10-Day Weather Forecast

Almanac

Astronomy

Jul. 29, 2016 Rise Set
Actual Time
Civil Twilight
Nautical Twilight
Astronomical Twilight
Moon
Length of Visible Light
Length of Day
Tomorrow will be .
, % of the Moon is Illuminated

Today's Extremes

State Highs State Lows

Community

WunderPhotos

Upload Photos

1,928,436 photos uploaded!

WunderBlog® & News

Nearby

Air Quality

  Air Quality AQ Index Pollutant
Not available.

Snow Depth

Station Depth Elevation

Earthquake Activity

City Distance Mag. Time & Date
Minimum magnitude displayed is 2.5.

Coastal Water Temperatures

Place Temperature

Stations

Nearby Weather Stations

Station Location Temp. Windchill Dew Point Humidity Wind Precip. Elev Updated Type
                   

Watches & Warnings

There are currently no watches in effect.